Accueil
METAR-TAF:

METAR-TAF

Aéroports :

District de garde d'Ōminato

Mutsu, Japon

latitude: 41-14N, longitude: 141-08E, altitude: 7 m

Observation

Le bulletin a été fait il y a 18 heures et 20 minutes, à 03:06 UTC
Vent 5 kt de nord-est
Température 0°C
Humidité 93%
Pression 1019 hPa
Visibilité: 5000 m
Quelques nuages à une hauteur de 1200 ft
Nuages épars à une hauteur de 2000 ft
Nuages fragmentés à une hauteur de 4000 ft
faibles averses de neige

METAR: RJSO 270306Z 04005KT 5000 -SHSN FEW012 SCT020 BKN040 M00/M01 Q1019 RMK 1ST012 3CU020 7CU040 A3012

Heure: 06:26 (21:26 UTC)


TAF: absent

Observations et prévisions météorologiques de plus de 4000 aéroports (messages METAR et TAF).

Les stations disponibles sont représentées par des disques jaunes et rouges sur la carte.

Passer la souris dessus pour voir le nom de la station.

Cliquer dessus pour voir les observations et prévisions météorologiques.

Pour changer de carte: cliquez sur les boutons verts avec une croix noire pour zoomer, sur le bouton vert avec un tiret pour effectuer un zoom arrière, ou sur les flèches vertes pour les cartes adjacentes.


METAR-TAF: